Terminal Aerodrome Forecast
Issued by NWS

Home | Current Version | Previous Version | Text Only | Print | Product List | Glossary On
Versions: 1 2 3 4 5 6 7 8 9 10 11 12 13 14 15 16 17 18 19 20 21 22 23 24
394
FTUS45 KGJT 192323
TAFMTJ
TAF
KMTJ 192323Z 2000/2024 33006KT P6SM SCT110 BKN200
     FM200200 15006KT P6SM SCT110 BKN200
     FM201700 20012KT P6SM SKC
     FM201900 22016G27KT P6SM FEW090 FEW250=

USA.gov is the U.S. government's official web portal to all federal, state and local government web resources and services.